Time;durP1;ratioP1;P1;durP2;ratioP2;P2;SDS_P1;SDS_P2;PMS_P1;PMS_P2;Temp;Humidity;BMP_temperature;BMP_pressure;BME280_temperature;BME280_humidity;BME280_pressure;Samples;Min_cycle;Max_cycle;Signal;HPM_P1;HPM_P2
2022/06/01 00:01:16;;;;;;;5.80;5.43;;;14.80;99.90;;;;;;5052057;28;20184;-68
2022/06/01 00:03:43;;;;;;;6.60;6.10;;;14.80;99.90;;;;;;5051228;28;20180;-68
2022/06/01 00:06:10;;;;;;;7.00;6.37;;;14.90;99.90;;;;;;5050966;28;20235;-68
2022/06/01 00:08:36;;;;;;;6.00;5.60;;;14.90;99.90;;;;;;5051479;28;20416;-68
2022/06/01 00:11:02;;;;;;;6.90;6.50;;;14.90;99.90;;;;;;5052232;28;20412;-68
2022/06/01 00:13:28;;;;;;;6.40;6.00;;;14.80;99.90;;;;;;5052064;28;20409;-73
2022/06/01 00:15:54;;;;;;;6.50;6.00;;;14.80;99.90;;;;;;5050826;28;20442;-68
2022/06/01 00:18:22;;;;;;;5.80;5.50;;;14.90;99.90;;;;;;5052113;28;20189;-68
2022/06/01 00:20:48;;;;;;;6.43;6.00;;;14.80;99.90;;;;;;5049010;28;20481;-68
2022/06/01 00:23:15;;;;;;;5.33;5.03;;;14.70;99.90;;;;;;5051727;28;20479;-68
2022/06/01 00:25:42;;;;;;;6.27;5.87;;;14.70;99.90;;;;;;5051638;28;20495;-68
2022/06/01 00:28:08;;;;;;;6.90;6.50;;;14.80;99.90;;;;;;5050499;28;20477;-68
2022/06/01 00:30:34;;;;;;;6.60;6.13;;;14.70;99.90;;;;;;5050986;28;20507;-69
2022/06/01 00:33:00;;;;;;;6.60;6.10;;;14.60;99.90;;;;;;5051698;28;20500;-67
2022/06/01 00:35:26;;;;;;;6.47;6.07;;;14.60;99.90;;;;;;5051942;28;20228;-67
2022/06/01 00:37:52;;;;;;;6.90;6.40;;;14.60;99.90;;;;;;5051421;28;20186;-68
2022/06/01 00:40:21;;;;;;;6.43;6.03;;;14.60;99.90;;;;;;5050397;28;20807;-68
2022/06/01 00:42:49;;;;;;;6.33;5.93;;;14.60;99.90;;;;;;5051124;28;20483;-68
2022/06/01 00:45:18;;;;;;;6.90;6.40;;;14.60;99.90;;;;;;5051644;28;20416;-68
2022/06/01 00:47:44;;;;;;;7.30;6.80;;;14.60;99.90;;;;;;5050753;28;20895;-68
2022/06/01 00:50:30;;;;;;;7.00;6.60;;;14.60;99.90;;;;;;5050611;28;20447;-68
2022/06/01 00:53:05;;;;;;;6.77;6.37;;;14.60;99.90;;;;;;5051311;28;20169;-68
2022/06/01 00:55:39;;;;;;;6.90;6.50;;;14.60;99.90;;;;;;5051634;28;20402;-74
2022/06/01 00:58:12;;;;;;;6.83;6.43;;;14.60;99.90;;;;;;5051789;28;20392;-67
2022/06/01 01:00:40;;;;;;;7.00;6.60;;;14.60;99.90;;;;;;5051238;28;20472;-67
2022/06/01 01:03:10;;;;;;;6.80;6.30;;;14.60;99.90;;;;;;5050261;28;20485;-67
2022/06/01 01:05:40;;;;;;;6.80;6.40;;;14.60;99.90;;;;;;5050921;28;20410;-71
2022/06/01 01:08:07;;;;;;;7.80;7.03;;;14.60;99.90;;;;;;5050527;28;20528;-67
2022/06/01 01:10:33;;;;;;;7.07;6.67;;;14.60;99.90;;;;;;5050507;28;20874;-73
2022/06/01 01:13:04;;;;;;;7.83;7.33;;;14.60;99.90;;;;;;5054790;28;20444;-68
2022/06/01 01:15:51;;;;;;;8.13;7.63;;;14.50;99.90;;;;;;5055742;28;20744;-67
2022/06/01 01:18:20;;;;;;;7.80;7.30;;;14.50;99.90;;;;;;5053809;28;20412;-68
2022/06/01 01:21:14;;;;;;;8.00;7.20;;;14.50;99.90;;;;;;5054027;28;20482;-68
2022/06/01 01:23:52;;;;;;;7.80;7.10;;;14.50;99.90;;;;;;5054227;28;20392;-68
2022/06/01 01:26:19;;;;;;;8.50;7.90;;;14.50;99.90;;;;;;5055119;28;20412;-68
2022/06/01 01:28:45;;;;;;;8.80;8.20;;;14.40;99.90;;;;;;5054252;28;20461;-68
2022/06/01 01:31:17;;;;;;;8.50;7.80;;;14.40;99.90;;;;;;5054135;28;20432;-68
2022/06/01 01:33:46;;;;;;;8.10;7.50;;;14.40;99.90;;;;;;5052053;28;20182;-68
2022/06/01 01:36:14;;;;;;;9.43;8.83;;;14.40;99.90;;;;;;5054996;28;20412;-68
2022/06/01 01:39:07;;;;;;;8.87;8.27;;;14.30;99.90;;;;;;5054064;28;20470;-68
2022/06/01 01:41:52;;;;;;;10.53;9.73;;;14.30;99.90;;;;;;5055132;28;20432;-68
2022/06/01 01:44:30;;;;;;;8.47;7.87;;;14.30;99.90;;;;;;5054928;28;20419;-68
2022/06/01 01:46:58;;;;;;;9.50;8.80;;;14.30;99.90;;;;;;5053672;28;20408;-68
2022/06/01 01:49:30;;;;;;;9.50;8.80;;;14.30;99.90;;;;;;5054019;28;20454;-68
2022/06/01 01:51:59;;;;;;;9.50;8.70;;;14.30;99.90;;;;;;5051680;28;20486;-68
2022/06/01 01:54:43;;;;;;;8.83;8.10;;;14.20;99.90;;;;;;5054360;28;20464;-68
2022/06/01 01:57:46;;;;;;;8.50;7.90;;;14.20;99.90;;;;;;5052429;28;20468;-68
2022/06/01 02:00:18;;;;;;;8.20;7.70;;;14.20;99.90;;;;;;5054437;28;20446;-68
2022/06/01 02:03:11;;;;;;;8.20;7.43;;;14.20;99.90;;;;;;5053959;28;20423;-68
2022/06/01 02:06:04;;;;;;;8.40;7.80;;;14.20;99.90;;;;;;5053636;28;20924;-75
2022/06/01 02:08:56;;;;;;;8.63;8.03;;;14.10;99.90;;;;;;5053176;28;20426;-68
2022/06/01 02:14:42;;;;;;;9.60;8.80;;;14.10;99.90;;;;;;5052362;28;20442;-68
2022/06/01 02:17:19;;;;;;;9.60;8.90;;;14.00;99.90;;;;;;5053901;28;20748;-68
2022/06/01 02:19:55;;;;;;;9.23;8.53;;;14.00;99.90;;;;;;5053378;28;20546;-68
2022/06/01 02:22:21;;;;;;;9.00;8.30;;;13.90;99.90;;;;;;5054194;28;20478;-68
2022/06/01 02:24:47;;;;;;;9.13;8.50;;;13.90;99.90;;;;;;5053337;28;20440;-68
2022/06/01 02:27:14;;;;;;;9.57;8.77;;;13.90;99.90;;;;;;5054108;28;20413;-68
2022/06/01 02:29:55;;;;;;;9.10;8.50;;;13.90;99.90;;;;;;5053547;28;20456;-74
2022/06/01 02:32:22;;;;;;;11.00;9.03;;;13.90;99.90;;;;;;5053771;28;20411;-67
2022/06/01 02:34:49;;;;;;;9.87;9.10;;;13.90;99.90;;;;;;5052119;28;20422;-68
2022/06/01 02:37:17;;;;;;;9.60;8.90;;;13.80;99.90;;;;;;5053825;28;20415;-68
2022/06/01 02:39:46;;;;;;;9.47;8.67;;;13.80;99.90;;;;;;5051841;28;20459;-68
2022/06/01 02:42:28;;;;;;;10.70;9.80;;;13.90;99.90;;;;;;5053731;28;20490;-68
2022/06/01 02:45:06;;;;;;;10.07;9.27;;;13.80;99.90;;;;;;5051797;28;20442;-68
2022/06/01 02:47:34;;;;;;;9.70;9.00;;;13.80;99.90;;;;;;5053675;28;20434;-68
2022/06/01 02:50:00;;;;;;;10.33;9.53;;;13.80;99.90;;;;;;5052651;28;20492;-67
2022/06/01 02:52:27;;;;;;;10.20;9.50;;;13.70;99.90;;;;;;5053511;28;20420;-68
2022/06/01 02:54:53;;;;;;;11.00;10.00;;;13.70;99.90;;;;;;5052254;28;20764;-68
2022/06/01 02:57:19;;;;;;;11.27;10.37;;;13.70;99.90;;;;;;5034978;28;20935;-68
2022/06/01 02:59:46;;;;;;;11.23;10.40;;;13.70;99.90;;;;;;5052750;28;20568;-67
2022/06/01 03:02:13;;;;;;;10.67;9.80;;;13.60;99.90;;;;;;5053343;28;20426;-68
2022/06/01 03:04:41;;;;;;;10.83;9.93;;;13.60;99.90;;;;;;5053100;28;20414;-74
2022/06/01 03:07:07;;;;;;;11.60;10.50;;;13.60;99.90;;;;;;5052842;28;20412;-68
2022/06/01 03:09:34;;;;;;;10.33;9.53;;;13.60;99.90;;;;;;5052100;28;20455;-68
2022/06/01 03:12:00;;;;;;;11.47;10.57;;;13.70;99.90;;;;;;5051973;28;20438;-68
2022/06/01 03:14:27;;;;;;;11.30;10.40;;;13.60;99.90;;;;;;5053492;28;20423;-68
2022/06/01 03:16:53;;;;;;;10.40;9.70;;;13.60;99.90;;;;;;5052857;28;20419;-67
2022/06/01 03:19:18;;;;;;;10.57;9.80;;;13.60;99.90;;;;;;5052310;28;20494;-68
2022/06/01 03:21:44;;;;;;;10.73;9.80;;;13.50;99.90;;;;;;5052559;28;20552;-68
2022/06/01 03:24:10;;;;;;;10.63;9.87;;;13.50;99.90;;;;;;5053606;28;20226;-68
2022/06/01 03:26:36;;;;;;;11.13;10.23;;;13.50;99.90;;;;;;5053274;28;20610;-68
2022/06/01 03:29:03;;;;;;;12.60;11.20;;;13.50;99.90;;;;;;5051021;28;20191;-68
2022/06/01 03:31:29;;;;;;;13.30;12.00;;;13.50;99.90;;;;;;5052875;28;20416;-68
2022/06/01 03:33:55;;;;;;;11.43;10.50;;;13.50;99.90;;;;;;5050908;28;20425;-72
2022/06/01 03:36:21;;;;;;;13.40;12.30;;;13.50;99.90;;;;;;5051213;28;20915;-68
2022/06/01 03:38:47;;;;;;;14.17;12.97;;;13.50;99.90;;;;;;5051876;28;20208;-68
2022/06/01 03:41:13;;;;;;;13.50;12.23;;;13.40;99.90;;;;;;5051178;28;20187;-67
2022/06/01 03:46:23;;;;;;;12.40;11.40;;;13.40;99.90;;;;;;5052612;28;20454;-68
2022/06/01 03:48:49;;;;;;;14.47;13.47;;;13.40;99.90;;;;;;5051465;28;20417;-68
2022/06/01 03:51:15;;;;;;;13.10;12.00;;;13.40;99.90;;;;;;5052535;28;20191;-68
2022/06/01 03:53:42;;;;;;;13.67;12.73;;;13.40;99.90;;;;;;5052613;28;20474;-74
2022/06/01 03:56:08;;;;;;;14.47;13.43;;;13.50;99.90;;;;;;5052209;28;20406;-68
2022/06/01 03:58:35;;;;;;;13.90;12.80;;;13.50;99.90;;;;;;5049777;28;20442;-67
2022/06/01 04:01:02;;;;;;;14.87;13.73;;;13.50;99.90;;;;;;5051278;28;20433;-67
2022/06/01 04:03:29;;;;;;;11.97;10.90;;;13.50;99.90;;;;;;5052303;28;20419;-69
2022/06/01 04:05:55;;;;;;;14.17;12.97;;;13.50;99.90;;;;;;5049751;28;20522;-70
2022/06/01 04:08:21;;;;;;;12.10;11.00;;;13.50;99.90;;;;;;5049909;28;20538;-70
2022/06/01 04:10:47;;;;;;;13.20;12.10;;;13.50;99.90;;;;;;5040254;28;20646;-70
2022/06/01 04:13:14;;;;;;;12.37;11.37;;;13.50;99.90;;;;;;5052389;28;20420;-70
2022/06/01 04:15:41;;;;;;;14.40;13.00;;;13.50;99.90;;;;;;5051102;28;20422;-70
2022/06/01 04:18:07;;;;;;;13.73;12.53;;;13.50;99.90;;;;;;5052042;28;20766;-70
2022/06/01 04:20:33;;;;;;;13.20;12.10;;;13.50;99.90;;;;;;5052254;28;20887;-70
2022/06/01 04:23:00;;;;;;;12.50;11.50;;;13.60;99.90;;;;;;5050700;28;20414;-70
2022/06/01 04:25:27;;;;;;;15.40;14.10;;;13.60;99.90;;;;;;5052218;28;20455;-70
2022/06/01 04:27:53;;;;;;;14.63;13.37;;;13.60;99.90;;;;;;5051769;28;20934;-70
2022/06/01 04:30:20;;;;;;;13.40;12.30;;;13.70;99.90;;;;;;5050219;28;20424;-71
2022/06/01 04:32:49;;;;;;;16.43;15.20;;;13.70;99.90;;;;;;5038616;28;20184;-77
2022/06/01 04:35:16;;;;;;;13.20;11.97;;;13.70;99.90;;;;;;5063330;28;20424;-68
2022/06/01 04:37:42;;;;;;;12.60;11.50;;;13.80;99.90;;;;;;5051053;28;20425;-69
2022/06/01 04:40:09;;;;;;;11.57;10.53;;;13.80;99.90;;;;;;5050005;28;20478;-69
2022/06/01 04:42:38;;;;;;;12.50;11.40;;;13.80;99.90;;;;;;5052170;28;20230;-70
2022/06/01 04:45:05;;;;;;;12.00;11.00;;;13.90;99.90;;;;;;5049265;28;20494;-69
2022/06/01 04:47:30;;;;;;;12.63;11.63;;;13.90;99.90;;;;;;5048790;28;20453;-69
2022/06/01 04:49:56;;;;;;;11.60;10.60;;;13.90;99.90;;;;;;5055062;28;20416;-70
2022/06/01 04:52:22;;;;;;;12.33;11.30;;;13.90;99.90;;;;;;5056029;28;20235;-69
2022/06/01 04:54:47;;;;;;;12.23;11.23;;;13.90;99.90;;;;;;5053830;28;20415;-76
2022/06/01 04:57:13;;;;;;;11.20;10.20;;;14.00;99.90;;;;;;5053798;28;20204;-69
2022/06/01 04:59:39;;;;;;;15.30;14.00;;;14.00;99.90;;;;;;5055374;28;20247;-69
2022/06/01 05:02:05;;;;;;;12.73;11.73;;;14.00;99.90;;;;;;5040875;28;20929;-69
2022/06/01 05:04:31;;;;;;;14.37;12.87;;;14.10;99.90;;;;;;5053915;28;20554;-73
2022/06/01 05:06:58;;;;;;;13.93;12.67;;;14.10;99.90;;;;;;5045321;28;20429;-69
2022/06/01 05:09:24;;;;;;;13.73;12.63;;;14.10;99.90;;;;;;5053808;28;20440;-67
2022/06/01 05:11:49;;;;;;;14.17;12.97;;;14.20;99.90;;;;;;5054678;28;20452;-69
2022/06/01 05:14:15;;;;;;;13.77;12.47;;;14.20;99.90;;;;;;5051273;28;20447;-68
2022/06/01 05:16:41;;;;;;;12.83;11.63;;;14.20;99.90;;;;;;5051567;28;20655;-69
2022/06/01 05:19:07;;;;;;;12.50;11.30;;;14.20;99.90;;;;;;5045114;28;20208;-68
2022/06/01 05:21:35;;;;;;;13.77;12.57;;;14.20;99.90;;;;;;5072811;28;20255;-68
2022/06/01 05:24:01;;;;;;;13.17;12.07;;;14.20;99.90;;;;;;5049396;28;20187;-68
2022/06/01 05:26:27;;;;;;;13.73;12.63;;;14.20;99.90;;;;;;5052661;28;20792;-68
2022/06/01 05:28:53;;;;;;;14.67;13.37;;;14.20;99.90;;;;;;5048685;28;20211;-68
2022/06/01 05:31:19;;;;;;;12.73;11.73;;;14.20;99.90;;;;;;5050634;28;20212;-68
2022/06/01 05:33:46;;;;;;;13.77;12.47;;;14.20;99.90;;;;;;5047966;28;20514;-68
2022/06/01 05:36:14;;;;;;;13.53;12.20;;;14.20;99.90;;;;;;5047469;28;20782;-68
2022/06/01 05:38:40;;;;;;;13.60;12.40;;;14.20;99.90;;;;;;5048703;28;20801;-68
2022/06/01 05:41:06;;;;;;;13.43;12.33;;;14.20;99.90;;;;;;5038450;28;20435;-70
2022/06/01 05:43:31;;;;;;;14.70;13.40;;;14.30;99.90;;;;;;5047601;28;20553;-70
2022/06/01 05:45:57;;;;;;;16.83;15.10;;;14.20;99.90;;;;;;5044858;28;20183;-71
2022/06/01 05:48:23;;;;;;;16.83;15.40;;;14.30;99.90;;;;;;5051662;28;20197;-70
2022/06/01 05:50:49;;;;;;;15.30;14.10;;;14.30;99.90;;;;;;5055875;28;20193;-71
2022/06/01 05:53:15;;;;;;;15.90;14.40;;;14.40;99.90;;;;;;5053206;28;20439;-71
2022/06/01 05:55:41;;;;;;;15.83;14.50;;;14.30;99.90;;;;;;5050714;28;20245;-70
2022/06/01 05:58:16;;;;;;;15.97;14.47;;;14.40;99.90;;;;;;5050984;28;21007;-70
2022/06/01 06:00:44;;;;;;;14.47;13.17;;;14.30;99.90;;;;;;5052797;28;20471;-70
2022/06/01 06:03:10;;;;;;;15.40;14.00;;;14.30;99.90;;;;;;5051978;28;20510;-71
2022/06/01 06:08:21;;;;;;;15.20;13.73;;;14.40;99.90;;;;;;5041008;28;20431;-69
2022/06/01 06:10:47;;;;;;;15.87;14.50;;;14.30;99.90;;;;;;5052998;28;20432;-72
2022/06/01 06:13:13;;;;;;;15.00;13.80;;;14.30;99.90;;;;;;5038907;28;20428;-70
2022/06/01 06:15:39;;;;;;;15.33;13.87;;;14.40;99.90;;;;;;5042639;28;20194;-70
2022/06/01 06:18:06;;;;;;;15.93;14.33;;;14.40;99.90;;;;;;5039557;28;20190;-71
2022/06/01 06:20:33;;;;;;;14.73;13.33;;;14.40;99.90;;;;;;5062220;28;20993;-70
2022/06/01 06:22:59;;;;;;;15.37;13.87;;;14.40;99.90;;;;;;5039224;28;20442;-70
2022/06/01 06:25:25;;;;;;;15.63;14.17;;;14.50;99.90;;;;;;5040309;28;20443;-70
2022/06/01 06:27:51;;;;;;;16.37;14.83;;;14.50;99.90;;;;;;5033953;28;20413;-71
2022/06/01 06:30:19;;;;;;;16.97;15.17;;;14.60;99.90;;;;;;5037548;28;20724;-70
2022/06/01 06:32:45;;;;;;;18.00;16.33;;;14.70;99.90;;;;;;5046462;28;20429;-73
2022/06/01 06:35:12;;;;;;;18.63;16.88;;;14.70;99.90;;;;;;5038992;28;20795;-70
2022/06/01 06:37:37;;;;;;;19.53;17.40;;;14.80;99.90;;;;;;5052610;28;20209;-69
2022/06/01 06:40:04;;;;;;;16.63;14.90;;;14.80;99.90;;;;;;5043054;28;20491;-68
2022/06/01 06:42:30;;;;;;;15.80;14.40;;;14.90;99.90;;;;;;5058175;28;20179;-68
2022/06/01 06:44:55;;;;;;;16.83;15.53;;;14.90;99.90;;;;;;5048578;28;20528;-68
2022/06/01 06:47:21;;;;;;;14.90;13.60;;;15.00;99.90;;;;;;5042760;28;20432;-68
2022/06/01 06:49:47;;;;;;;16.07;14.47;;;15.00;99.90;;;;;;5053807;28;20600;-68
2022/06/01 06:52:13;;;;;;;15.07;13.57;;;15.00;99.90;;;;;;5046110;28;20225;-70
2022/06/01 06:54:42;;;;;;;16.80;15.17;;;15.10;99.90;;;;;;5046995;28;20172;-67
2022/06/01 06:57:08;;;;;;;13.00;11.70;;;15.20;99.90;;;;;;5047785;28;20432;-72
2022/06/01 06:59:34;;;;;;;12.10;11.10;;;15.20;99.90;;;;;;5052692;28;20489;-68
2022/06/01 07:01:59;;;;;;;11.33;10.23;;;15.30;99.90;;;;;;5039132;28;20930;-68
2022/06/01 07:04:25;;;;;;;10.87;9.87;;;15.40;99.90;;;;;;5062252;28;20180;-67
2022/06/01 07:06:51;;;;;;;13.47;12.37;;;15.50;99.90;;;;;;5066215;28;20260;-67
2022/06/01 07:09:16;;;;;;;10.97;9.87;;;15.60;99.90;;;;;;5052148;28;20184;-67
2022/06/01 07:11:42;;;;;;;10.23;9.33;;;15.70;99.90;;;;;;5053474;28;20742;-67
2022/06/01 07:14:08;;;;;;;11.10;10.20;;;15.70;99.90;;;;;;5052793;28;20648;-70
2022/06/01 07:16:35;;;;;;;9.27;8.47;;;15.80;99.90;;;;;;5052310;28;20505;-68
2022/06/01 07:19:04;;;;;;;7.50;6.90;;;15.90;99.90;;;;;;5053145;28;20213;-68
2022/06/01 07:21:30;;;;;;;7.37;6.73;;;16.00;99.90;;;;;;5040811;28;20617;-68
2022/06/01 07:23:56;;;;;;;6.47;6.00;;;16.00;98.40;;;;;;5052069;28;20477;-68
2022/06/01 07:26:25;;;;;;;6.37;5.77;;;16.10;98.80;;;;;;5053229;28;20520;-68
2022/06/01 07:28:51;;;;;;;8.50;6.67;;;16.10;98.20;;;;;;5049839;28;20315;-68
2022/06/01 07:31:18;;;;;;;6.50;5.03;;;16.20;99.10;;;;;;5050841;28;20436;-68
2022/06/01 07:33:44;;;;;;;6.60;5.20;;;16.30;99.30;;;;;;5047349;28;20519;-68
2022/06/01 07:36:13;;;;;;;5.90;5.50;;;16.40;99.30;;;;;;5044749;28;20422;-68
2022/06/01 07:44:17;;;;;;;4.00;3.70;;;16.80;96.20;;;;;;5044478;28;20429;-69
2022/06/01 07:46:43;;;;;;;4.43;4.23;;;16.90;95.00;;;;;;5053012;28;20420;-70
2022/06/01 07:49:08;;;;;;;4.40;4.00;;;17.00;95.40;;;;;;5051445;28;20444;-68
2022/06/01 07:51:36;;;;;;;4.43;4.13;;;17.10;95.30;;;;;;5051470;28;20193;-68
2022/06/01 07:54:02;;;;;;;4.40;4.10;;;17.20;95.80;;;;;;5050026;28;20669;-68
2022/06/01 07:56:28;;;;;;;3.73;3.53;;;17.20;94.50;;;;;;5050980;28;20428;-70
2022/06/01 07:58:53;;;;;;;3.57;3.37;;;17.30;95.00;;;;;;5050484;28;20471;-67
2022/06/01 08:01:21;;;;;;;3.70;3.40;;;17.50;94.00;;;;;;5052003;28;20508;-67
2022/06/01 08:03:47;;;;;;;4.17;3.83;;;17.50;93.40;;;;;;5057802;28;20181;-67
2022/06/01 08:06:14;;;;;;;4.37;3.97;;;17.60;93.50;;;;;;5053271;28;20448;-67
2022/06/01 08:08:40;;;;;;;3.27;3.07;;;17.60;93.10;;;;;;5054517;28;20432;-68
2022/06/01 08:11:05;;;;;;;3.93;3.57;;;17.50;92.80;;;;;;5041280;28;20489;-68
2022/06/01 08:13:31;;;;;;;5.33;4.83;;;17.50;92.50;;;;;;5047289;28;20192;-68
2022/06/01 08:15:57;;;;;;;4.80;4.40;;;17.50;93.00;;;;;;5049691;28;20185;-74
2022/06/01 08:18:24;;;;;;;4.40;4.10;;;17.60;93.00;;;;;;5051580;28;20593;-68
2022/06/01 08:20:56;;;;;;;5.47;5.07;;;17.70;93.90;;;;;;5050263;28;20229;-68
2022/06/01 08:23:25;;;;;;;5.27;4.90;;;17.80;93.90;;;;;;5052218;28;20771;-68
2022/06/01 08:25:51;;;;;;;7.90;7.50;;;17.90;94.40;;;;;;5052488;28;20412;-68
2022/06/01 08:28:17;;;;;;;6.03;5.53;;;17.90;94.10;;;;;;5051798;28;20930;-68
2022/06/01 08:30:44;;;;;;;6.33;5.90;;;17.90;92.90;;;;;;5052450;28;20428;-68
2022/06/01 08:33:10;;;;;;;6.00;5.60;;;18.00;93.10;;;;;;5051776;28;20444;-68
2022/06/01 08:35:39;;;;;;;6.37;5.87;;;18.00;92.60;;;;;;5052176;28;20466;-67
2022/06/01 08:38:05;;;;;;;6.47;6.10;;;18.10;93.10;;;;;;5051765;28;20412;-68
2022/06/01 08:40:48;;;;;;;6.37;5.97;;;18.10;93.30;;;;;;5051969;28;20456;-67
2022/06/01 08:43:17;;;;;;;6.63;6.20;;;18.20;93.30;;;;;;5051435;28;20759;-67
2022/06/01 08:45:48;;;;;;;6.23;5.67;;;18.10;93.60;;;;;;5052222;28;20416;-67
2022/06/01 08:48:40;;;;;;;4.97;4.67;;;18.20;93.60;;;;;;5051351;28;20842;-67
2022/06/01 08:51:06;;;;;;;6.67;6.27;;;18.30;93.10;;;;;;5049316;28;20428;-67
2022/06/01 08:53:33;;;;;;;6.13;5.63;;;18.40;93.00;;;;;;5051925;28;20423;-67
2022/06/01 08:56:09;;;;;;;4.77;4.47;;;18.60;93.00;;;;;;5051586;28;20416;-74
2022/06/01 08:58:53;;;;;;;5.80;5.40;;;18.80;92.30;;;;;;5052180;28;20891;-67
2022/06/01 09:01:28;;;;;;;5.77;5.47;;;19.00;92.70;;;;;;5051551;28;20415;-67
2022/06/01 09:04:25;;;;;;;4.87;4.60;;;19.10;91.70;;;;;;5052144;28;20432;-67
2022/06/01 09:07:23;;;;;;;5.00;4.27;;;19.00;90.50;;;;;;5052045;28;20423;-67
2022/06/01 09:09:51;;;;;;;4.70;4.40;;;18.90;91.70;;;;;;5052185;28;20487;-67
2022/06/01 09:12:17;;;;;;;4.00;3.70;;;19.00;91.50;;;;;;5051127;28;20777;-67
2022/06/01 09:14:48;;;;;;;3.70;3.60;;;19.10;93.10;;;;;;5052072;28;20408;-67
2022/06/01 09:17:14;;;;;;;4.50;4.30;;;19.20;90.00;;;;;;5051373;28;20170;-67
2022/06/01 09:22:41;;;;;;;4.30;4.10;;;19.10;88.80;;;;;;5051656;28;20181;-68
2022/06/01 09:25:14;;;;;;;3.70;3.50;;;19.10;90.10;;;;;;5051337;28;20396;-68
2022/06/01 09:27:44;;;;;;;4.97;4.77;;;19.10;88.10;;;;;;5051865;28;20415;-67
2022/06/01 09:30:33;;;;;;;5.13;3.60;;;19.20;88.60;;;;;;5051232;28;20425;-67
2022/06/01 09:33:01;;;;;;;5.43;5.20;;;19.20;88.10;;;;;;5054875;28;20412;-67
2022/06/01 09:35:29;;;;;;;3.30;3.10;;;19.20;86.70;;;;;;5055405;28;20419;-67
2022/06/01 09:37:55;;;;;;;5.23;5.03;;;19.20;87.80;;;;;;5055358;28;20911;-67
2022/06/01 09:40:21;;;;;;;3.60;3.40;;;19.20;87.50;;;;;;5054642;28;20677;-67
2022/06/01 09:42:50;;;;;;;5.27;4.97;;;19.30;89.50;;;;;;5055184;28;20200;-67
2022/06/01 09:45:25;;;;;;;4.73;3.70;;;19.40;88.20;;;;;;5054696;28;20182;-67
2022/06/01 09:47:53;;;;;;;5.47;5.17;;;19.50;87.30;;;;;;5054943;28;20428;-67
2022/06/01 09:50:32;;;;;;;4.10;3.47;;;19.50;82.10;;;;;;5054591;28;20499;-67
2022/06/01 09:53:12;;;;;;;4.80;4.60;;;19.50;81.50;;;;;;5055183;28;20415;-67
2022/06/01 09:55:54;;;;;;;3.83;3.60;;;19.30;79.50;;;;;;5055105;28;20474;-67
2022/06/01 10:06:52;;;;;;;4.53;4.33;;;19.10;86.00;;;;;;5054940;28;20396;-67
2022/06/01 10:09:29;;;;;;;5.03;4.73;;;19.00;86.50;;;;;;5054180;28;20416;-67
2022/06/01 10:11:56;;;;;;;5.17;4.87;;;19.10;86.50;;;;;;5054848;28;20408;-67
2022/06/01 10:14:32;;;;;;;3.83;3.63;;;19.00;85.50;;;;;;5054122;28;20435;-67
2022/06/01 10:17:19;;;;;;;4.63;3.87;;;19.00;87.60;;;;;;5054333;28;20400;-68
2022/06/01 10:19:56;;;;;;;3.50;3.30;;;19.00;86.50;;;;;;5054631;28;20551;-67
2022/06/01 10:22:34;;;;;;;5.70;5.40;;;19.10;86.20;;;;;;5053439;28;20483;-67
2022/06/01 10:25:11;;;;;;;4.90;4.60;;;19.30;85.70;;;;;;5053450;28;20439;-67
2022/06/01 10:28:06;;;;;;;4.67;4.40;;;19.50;84.20;;;;;;5054399;28;20969;-67
2022/06/01 10:30:54;;;;;;;5.20;4.90;;;19.70;81.10;;;;;;5054375;28;20423;-67
2022/06/01 10:33:37;;;;;;;4.77;4.47;;;19.90;83.50;;;;;;5053688;28;20435;-67
2022/06/01 10:36:16;;;;;;;5.87;5.50;;;20.00;80.00;;;;;;5054648;28;20462;-67
2022/06/01 10:38:52;;;;;;;4.53;4.33;;;20.10;80.40;;;;;;5054203;28;20403;-67
2022/06/01 10:41:32;;;;;;;4.70;4.40;;;20.20;78.90;;;;;;5053709;28;20396;-67
2022/06/01 10:44:04;;;;;;;6.03;5.73;;;20.20;77.90;;;;;;5054190;28;20500;-67
2022/06/01 10:46:38;;;;;;;6.03;5.73;;;20.10;75.50;;;;;;5053885;28;20858;-67
2022/06/01 10:49:22;;;;;;;4.13;3.93;;;19.90;75.40;;;;;;5053904;28;20420;-67
2022/06/01 10:52:20;;;;;;;4.60;4.40;;;20.00;82.20;;;;;;5053923;28;20425;-67
2022/06/01 10:55:01;;;;;;;5.33;5.10;;;20.00;76.30;;;;;;5054117;28;20472;-67
2022/06/01 10:57:27;;;;;;;5.67;5.37;;;20.00;74.70;;;;;;5053490;28;20412;-67
2022/06/01 10:59:53;;;;;;;3.83;3.63;;;20.20;76.60;;;;;;5052592;28;20475;-68
2022/06/01 11:02:27;;;;;;;3.97;3.67;;;20.30;75.30;;;;;;5053256;28;20201;-67
2022/06/01 11:05:13;;;;;;;6.40;6.00;;;20.30;72.90;;;;;;5053946;28;20968;-67
2022/06/01 11:07:58;;;;;;;4.37;4.17;;;20.30;72.70;;;;;;5053751;28;20415;-67
2022/06/01 11:10:34;;;;;;;4.80;4.50;;;20.30;69.40;;;;;;5052721;28;20774;-67
2022/06/01 11:13:18;;;;;;;4.63;4.43;;;20.20;71.70;;;;;;5053623;28;20451;-67
2022/06/01 11:16:09;;;;;;;4.00;3.63;;;20.20;78.90;;;;;;5053742;28;20494;-67
2022/06/01 11:19:06;;;;;;;3.33;3.23;;;20.30;77.00;;;;;;5053091;28;20412;-67
2022/06/01 11:21:54;;;;;;;4.47;4.03;;;20.50;74.80;;;;;;5034129;28;21267;-67
2022/06/01 11:24:52;;;;;;;3.80;3.50;;;20.60;75.90;;;;;;5051912;28;20960;-67
2022/06/01 11:27:27;;;;;;;4.83;4.60;;;20.70;74.80;;;;;;5052788;28;20444;-67
2022/06/01 11:30:05;;;;;;;3.83;3.63;;;20.80;76.70;;;;;;5053341;28;20419;-67
2022/06/01 11:32:44;;;;;;;4.00;3.70;;;20.90;76.00;;;;;;5052638;28;20408;-67
2022/06/01 11:35:42;;;;;;;3.93;3.73;;;21.00;72.90;;;;;;5052961;28;20404;-68
2022/06/01 11:38:33;;;;;;;3.70;3.50;;;21.10;73.80;;;;;;5051594;28;20502;-67
2022/06/01 11:41:03;;;;;;;3.30;3.20;;;21.10;74.10;;;;;;5052984;28;20493;-67
2022/06/01 11:43:41;;;;;;;4.10;3.80;;;21.10;74.40;;;;;;5051145;28;20482;-67
2022/06/01 11:46:14;;;;;;;3.70;3.60;;;21.10;73.30;;;;;;5052708;28;20755;-67
2022/06/01 11:48:48;;;;;;;3.93;3.73;;;21.10;73.70;;;;;;5053077;28;20896;-67
2022/06/01 11:51:15;;;;;;;6.80;6.50;;;21.10;75.50;;;;;;5052646;28;20408;-68
2022/06/01 11:53:41;;;;;;;4.00;3.57;;;21.20;75.10;;;;;;5052528;28;20444;-67
2022/06/01 11:56:30;;;;;;;3.13;2.93;;;21.30;71.00;;;;;;5052384;28;20417;-67
2022/06/01 11:59:05;;;;;;;3.30;3.20;;;21.20;72.00;;;;;;5042384;28;20199;-67
2022/06/01 12:01:46;;;;;;;4.13;3.93;;;21.00;68.60;;;;;;5052193;28;20396;-67
2022/06/01 12:04:32;;;;;;;3.80;3.47;;;20.80;68.10;;;;;;5052125;28;20453;-69
2022/06/01 12:07:13;;;;;;;3.33;3.03;;;20.60;70.50;;;;;;5052783;28;20405;-67
2022/06/01 12:09:58;;;;;;;3.97;3.53;;;20.50;68.80;;;;;;5052784;28;20422;-67
2022/06/01 12:12:44;;;;;;;3.80;3.60;;;20.40;71.90;;;;;;5052129;28;20396;-67
2022/06/01 12:15:32;;;;;;;3.90;3.70;;;20.30;73.50;;;;;;5052637;28;20788;-67
2022/06/01 12:18:13;;;;;;;4.13;3.77;;;20.10;74.60;;;;;;5052328;28;20506;-67
2022/06/01 12:20:38;;;;;;;3.40;3.20;;;19.90;75.20;;;;;;5052223;28;20482;-67
2022/06/01 12:28:49;;;;;;;4.47;4.17;;;19.60;81.30;;;;;;5052429;28;20407;-67
2022/06/01 12:31:26;;;;;;;4.27;3.87;;;19.40;83.20;;;;;;5051751;28;20411;-74
2022/06/01 12:34:07;;;;;;;5.70;5.33;;;19.30;84.40;;;;;;5051722;28;20911;-67
2022/06/01 12:36:36;;;;;;;5.97;5.57;;;19.00;84.20;;;;;;5051164;28;20512;-67
2022/06/01 12:39:07;;;;;;;5.93;4.70;;;18.70;84.20;;;;;;5052293;28;20411;-67
2022/06/01 12:41:36;;;;;;;4.67;4.27;;;18.60;85.60;;;;;;5051785;28;20448;-67
2022/06/01 12:44:06;;;;;;;5.33;5.03;;;18.40;88.70;;;;;;5052310;28;20412;-67
2022/06/01 12:46:39;;;;;;;6.27;5.80;;;18.10;91.30;;;;;;5051749;28;20770;-67
2022/06/01 12:49:33;;;;;;;5.63;5.23;;;18.00;94.70;;;;;;5052006;28;20428;-67
2022/06/01 12:52:12;;;;;;;5.40;4.90;;;17.80;96.50;;;;;;5052230;28;20424;-67
2022/06/01 12:54:51;;;;;;;4.70;4.30;;;17.70;98.10;;;;;;5050395;28;20416;-67
2022/06/01 12:57:47;;;;;;;4.37;4.07;;;17.60;98.80;;;;;;5051595;28;20436;-67
2022/06/01 13:00:24;;;;;;;4.60;4.20;;;17.60;99.70;;;;;;5051828;28;20448;-75
2022/06/01 13:02:50;;;;;;;3.93;3.50;;;17.70;99.80;;;;;;5052100;28;20412;-67
2022/06/01 13:05:25;;;;;;;4.50;4.30;;;17.70;98.00;;;;;;5051216;28;20900;-67
2022/06/01 13:07:57;;;;;;;3.47;3.27;;;17.80;95.90;;;;;;5055043;28;20750;-67
2022/06/01 13:10:27;;;;;;;2.70;2.60;;;17.80;93.80;;;;;;5055628;28;20805;-67
2022/06/01 13:13:02;;;;;;;3.07;2.87;;;17.90;94.60;;;;;;5055630;28;20447;-67
2022/06/01 13:15:28;;;;;;;4.30;4.00;;;18.00;95.60;;;;;;5055206;28;20780;-67
2022/06/01 13:18:04;;;;;;;5.40;5.20;;;18.10;95.80;;;;;;5055856;28;20412;-67
2022/06/01 13:20:42;;;;;;;3.63;3.50;;;18.30;97.80;;;;;;5054933;28;20483;-67
2022/06/01 13:23:27;;;;;;;4.07;3.80;;;18.50;95.70;;;;;;5055912;28;20459;-67
2022/06/01 13:26:00;;;;;;;4.40;4.10;;;18.70;96.60;;;;;;5055778;28;20443;-67
2022/06/01 13:28:26;;;;;;;4.30;4.10;;;19.00;97.30;;;;;;5055328;28;20841;-67
2022/06/01 13:30:52;;;;;;;4.47;4.17;;;19.20;95.90;;;;;;5055534;28;20466;-68
2022/06/01 13:33:36;;;;;;;5.57;5.27;;;19.40;94.40;;;;;;5054904;28;20177;-67